Latest Weather Observations for Kurnell

IDN60801

Issued at 5:05 am EDT Tuesday 21 October 2014 (issued every 30 minutes, with the page automatically refreshed every 10 minutes)

About weather observations | Map of weather stations | Latest weather observations for NSW | Other Formats
Station Details ID: 066043 Name: KURNELL AWS Lat: -34.00 Lon: 151.21 Height: 4.0 m
Data from the previous 72 hours. | See also: Recent months for locations in New South Wales
Date/Time
EDT
Temp
°C
App
Temp
°C
Dew
Point
Rel
Hum
%
Delta-T
°C
Wind Press
QNH
hPa
Press
MSL
hPa
Rain
since 9 am
mm
Dir
 
Spd
km/h
Gust
km/h
Spd
kts
Gust
kts
21/05:00am - - - - - SSE 11 15 6 8 - - -
21/04:30am - - - - - SSE 13 17 7 9 - - -
21/04:00am - - - - - SE 13 19 7 10 - - -
21/03:30am - - - - - SSE 15 24 8 13 - - -
21/03:00am - - - - - SE 17 26 9 14 - - -
21/02:30am - - - - - SE 19 32 10 17 - - -
21/02:00am - - - - - SE 19 28 10 15 - - -
21/01:30am - - - - - ESE 19 24 10 13 - - -
21/01:00am - - - - - ESE 17 20 9 11 - - -
21/12:30am - - - - - ESE 17 24 9 13 - - -
21/12:00am - - - - - ESE 17 28 9 15 - - -
 
Date/Time
EDT
Temp
°C
App
Temp
°C
Dew
Point
Rel
Hum
%
Delta-T
°C
Wind Press
QNH
hPa
Press
MSL
hPa
Rain
since 9 am
mm
Dir
 
Spd
km/h
Gust
km/h
Spd
kts
Gust
kts
20/11:30pm - - - - - E 17 28 9 15 - - -
20/11:00pm - - - - - ESE 24 32 13 17 - - -
20/10:30pm - - - - - ESE 20 28 11 15 - - -
20/10:00pm - - - - - SE 17 24 9 13 - - -
20/09:30pm - - - - - SE 19 26 10 14 - - -
20/09:00pm - - - - - SSE 20 28 11 15 - - -
20/08:30pm - - - - - SSE 19 28 10 15 - - -
20/08:00pm - - - - - SE 17 24 9 13 - - -
20/07:30pm - - - - - SE 19 26 10 14 - - -
20/07:00pm - - - - - S 22 43 12 23 - - -
20/06:30pm - - - - - S 22 32 12 17 - - -
20/06:00pm - - - - - S 24 33 13 18 - - -
20/05:30pm - - - - - S 24 33 13 18 - - -
20/05:00pm - - - - - S 28 41 15 22 - - -
20/04:30pm - - - - - S 28 37 15 20 - - -
20/04:00pm - - - - - S 32 41 17 22 - - -
20/03:30pm - - - - - S 30 37 16 20 - - -
20/03:00pm - - - - - S 32 39 17 21 - - -
20/02:30pm - - - - - S 35 50 19 27 - - -
20/02:22pm - - - - - S 30 50 16 27 - - -
20/02:00pm - - - - - S 30 39 16 21 - - -
20/01:30pm - - - - - SSW 35 50 19 27 - - -
20/01:26pm - - - - - S 32 50 17 27 - - -
20/01:00pm - - - - - S 33 43 18 23 - - -
20/12:30pm - - - - - S 37 50 20 27 - - -
20/12:01pm - - - - - S 33 52 18 28 - - -
20/12:00pm - - - - - S 35 52 19 28 - - -
20/11:30am - - - - - SSW 39 54 21 29 - - -
20/11:00am - - - - - S 43 56 23 30 - - -
20/10:33am - - - - - S 39 57 21 31 - - -
20/10:30am - - - - - S 39 56 21 30 - - -
20/10:02am - - - - - S 39 57 21 31 - - -
20/10:00am - - - - - S 41 57 22 31 - - -
20/09:33am - - - - - S 43 61 23 33 - - -
20/09:30am - - - - - S 41 54 22 29 - - -
20/09:00am - - - - - S 39 57 21 31 - - -
20/08:34am - - - - - S 44 63 24 34 - - -
20/08:30am - - - - - S 46 63 25 34 - - -
20/08:00am - - - - - S 46 65 25 35 - - -
20/07:32am - - - - - S 44 63 24 34 - - -
20/07:30am - - - - - S 44 59 24 32 - - -
20/07:04am - - - - - S 46 65 25 35 - - -
20/07:00am - - - - - S 48 65 26 35 - - -
20/06:30am - - - - - S 46 72 25 39 - - -
20/06:00am - - - - - SSW 52 74 28 40 - - -
20/05:44am - - - - - SSW 52 70 28 38 - - -
20/05:43am - - - - - SSW 52 69 28 37 - - -
20/05:33am - - - - - SW 30 48 16 26 - - -
20/05:30am - - - - - WSW 26 41 14 22 - - -
20/05:00am - - - - - NW 6 13 3 7 - - -
20/04:30am - - - - - NNW 9 13 5 7 - - -
20/04:00am - - - - - NNW 15 17 8 9 - - -
20/03:30am - - - - - NW 15 17 8 9 - - -
20/03:00am - - - - - NNW 9 9 5 5 - - -
20/02:30am - - - - - N 7 9 4 5 - - -
20/02:00am - - - - - N 11 13 6 7 - - -
20/01:30am - - - - - N 13 15 7 8 - - -
20/01:00am - - - - - N 15 17 8 9 - - -
20/12:30am - - - - - WNW 11 11 6 6 - - -
20/12:00am - - - - - NW 7 7 4 4 - - -
 
Date/Time
EDT
Temp
°C
App
Temp
°C
Dew
Point
Rel
Hum
%
Delta-T
°C
Wind Press
QNH
hPa
Press
MSL
hPa
Rain
since 9 am
mm
Dir
 
Spd
km/h
Gust
km/h
Spd
kts
Gust
kts
19/11:30pm - - - - - N 11 15 6 8 - - -
19/11:00pm - - - - - N 13 17 7 9 - - -
19/10:30pm - - - - - N 19 28 10 15 - - -
19/10:00pm - - - - - NNE 28 33 15 18 - - -
19/09:30pm - - - - - NNE 30 39 16 21 - - -
19/09:00pm - - - - - NNE 32 39 17 21 - - -
19/08:30pm - - - - - NNE 35 43 19 23 - - -
19/08:00pm - - - - - NNE 37 46 20 25 - - -
19/07:30pm - - - - - NNE 37 48 20 26 - - -
19/07:00pm - - - - - NE 39 50 21 27 - - -
19/06:30pm - - - - - NE 39 48 21 26 - - -
19/06:00pm - - - - - NE 39 46 21 25 - - -
19/05:30pm - - - - - NE 41 48 22 26 - - -
19/05:00pm - - - - - NE 41 48 22 26 - - -
19/04:30pm - - - - - NE 39 46 21 25 - - -
19/04:00pm - - - - - NE 41 48 22 26 - - -
19/03:30pm - - - - - NE 39 46 21 25 - - -
19/03:00pm - - - - - NE 37 44 20 24 - - -
19/02:30pm - - - - - NE 37 43 20 23 - - -
19/02:00pm - - - - - NE 33 39 18 21 - - -
19/01:30pm - - - - - NE 35 39 19 21 - - -
19/01:00pm - - - - - NE 33 37 18 20 - - -
19/12:30pm - - - - - NE 28 30 15 16 - - -
19/12:00pm - - - - - NE 26 28 14 15 - - -
19/11:30am - - - - - NE 17 20 9 11 - - -
19/11:00am - - - - - NNW 13 17 7 9 - - -
19/10:30am - - - - - NNW 11 15 6 8 - - -
19/10:00am - - - - - NW 15 17 8 9 - - -
19/09:30am - - - - - NW 13 15 7 8 - - -
19/09:00am - - - - - NNW 13 15 7 8 - - -
19/08:30am - - - - - NNW 17 19 9 10 - - -
19/08:00am - - - - - NW 19 20 10 11 - - -
19/07:30am - - - - - NNW 15 17 8 9 - - -
19/07:00am - - - - - N 15 17 8 9 - - -
19/06:30am - - - - - N 17 19 9 10 - - -
19/06:00am - - - - - N 17 20 9 11 - - -
19/05:30am - - - - - N 17 19 9 10 - - -
19/05:00am - - - - - N 13 17 7 9 - - -
19/04:30am - - - - - NNW 15 19 8 10 - - -
19/04:00am - - - - - NNW 13 17 7 9 - - -
19/03:30am - - - - - NNW 15 17 8 9 - - -
19/03:00am - - - - - NNW 13 17 7 9 - - -
19/02:30am - - - - - NNW 15 17 8 9 - - -
19/02:00am - - - - - NNW 13 17 7 9 - - -
19/01:30am - - - - - NNW 13 17 7 9 - - -
19/01:00am - - - - - NW 15 19 8 10 - - -
19/12:30am - - - - - NNW 15 17 8 9 - - -
19/12:00am - - - - - NNW 15 17 8 9 - - -
 
Date/Time
EDT
Temp
°C
App
Temp
°C
Dew
Point
Rel
Hum
%
Delta-T
°C
Wind Press
QNH
hPa
Press
MSL
hPa
Rain
since 9 am
mm
Dir
 
Spd
km/h
Gust
km/h
Spd
kts
Gust
kts
18/11:30pm - - - - - N 13 19 7 10 - - -
18/11:00pm - - - - - N 17 20 9 11 - - -
18/10:30pm - - - - - NNE 17 19 9 10 - - -
18/10:00pm - - - - - NNE 17 22 9 12 - - -
18/09:30pm - - - - - NE 20 26 11 14 - - -
18/09:00pm - - - - - NE 20 24 11 13 - - -
18/08:30pm - - - - - NE 19 22 10 12 - - -
18/08:00pm - - - - - NE 20 26 11 14 - - -
18/07:30pm - - - - - NE 22 28 12 15 - - -
18/07:00pm - - - - - ENE 22 28 12 15 - - -
18/06:30pm - - - - - ENE 22 28 12 15 - - -
18/06:00pm - - - - - ENE 22 28 12 15 - - -
18/05:30pm - - - - - ENE 24 28 13 15 - - -
18/05:00pm - - - - - E 20 26 11 14 - - -
18/04:30pm - - - - - E 22 30 12 16 - - -
18/04:00pm - - - - - E 22 28 12 15 - - -
18/03:30pm - - - - - E 20 28 11 15 - - -
18/03:00pm - - - - - E 19 22 10 12 - - -
18/02:30pm - - - - - E 19 26 10 14 - - -
18/02:00pm - - - - - E 17 24 9 13 - - -
18/01:30pm - - - - - ESE 15 22 8 12 - - -
18/01:00pm - - - - - E 13 19 7 10 - - -
18/12:30pm - - - - - E 9 15 5 8 - - -
18/12:00pm - - - - - CALM 0 0 0 0 - - -
18/11:30am - - - - - W 6 11 3 6 - - -
18/11:00am - - - - - SSW 13 17 7 9 - - -
18/10:30am - - - - - SSW 9 11 5 6 - - -
18/10:00am - - - - - W 7 11 4 6 - - -
18/09:30am - - - - - WSW 11 13 6 7 - - -
18/09:00am - - - - - SW 11 13 6 7 - - -
18/08:30am - - - - - SW 13 17 7 9 - - -
18/08:00am - - - - - W 9 11 5 6 - - -
18/07:30am - - - - - W 9 11 5 6 - - -
18/07:00am - - - - - WNW 9 13 5 7 - - -
18/06:30am - - - - - W 11 15 6 8 - - -
18/06:00am - - - - - NNW 13 17 7 9 - - -
18/05:30am - - - - - SSE 2 7 1 4 - - -

Other Formats:

Comma delimited format used in spreadsheet applications
http://www.bom.gov.au/fwo/IDN60801/IDN60801.95756.axf

JavaScript Object Notation format (JSON) in row-major order
http://www.bom.gov.au/fwo/IDN60801/IDN60801.95756.json